Time;durP1;ratioP1;P1;durP2;ratioP2;P2;SDS_P1;SDS_P2;PMS_P1;PMS_P2;Temp;Humidity;BMP_temperature;BMP_pressure;BME280_temperature;BME280_humidity;BME280_pressure;Samples;Min_cycle;Max_cycle;Signal;HPM_P1;HPM_P2
2022/11/30 00:00:46;;;;;;;;;;;7.40;99.90;;;;;;4376676;28;10000719;-72
2022/11/30 00:03:11;;;;;;;35.13;19.20;;;7.40;99.90;;;;;;5077629;28;19908;-73
2022/11/30 00:05:37;;;;;;;36.33;19.63;;;7.40;99.90;;;;;;5082168;28;20125;-72
2022/11/30 00:08:02;;;;;;;31.52;18.20;;;7.40;99.90;;;;;;5078685;28;20043;-73
2022/11/30 00:10:28;;;;;;;27.00;16.63;;;7.40;99.90;;;;;;5080347;28;20036;-73
2022/11/30 00:12:54;;;;;;;26.33;16.77;;;7.40;99.90;;;;;;5082268;28;20024;-73
2022/11/30 00:15:19;;;;;;;29.50;17.23;;;7.30;99.90;;;;;;5076993;28;20024;-73
2022/11/30 00:17:46;;;;;;;33.38;18.15;;;7.30;99.90;;;;;;5084064;28;20744;-73
2022/11/30 00:20:15;;;;;;;33.75;18.67;;;7.30;99.90;;;;;;5079884;28;20020;-73
2022/11/30 00:22:41;;;;;;;39.28;19.95;;;7.30;99.90;;;;;;5081344;28;20024;-73
2022/11/30 00:25:07;;;;;;;32.72;18.05;;;7.30;99.90;;;;;;5079118;28;20036;-73
2022/11/30 00:27:34;;;;;;;32.30;17.15;;;7.30;99.90;;;;;;5081427;28;20027;-73
2022/11/30 00:29:59;;;;;;;31.75;16.60;;;7.40;99.90;;;;;;5079229;28;20095;-73
2022/11/30 00:32:26;;;;;;;30.25;16.65;;;7.40;99.90;;;;;;5079215;28;20076;-72
2022/11/30 00:34:52;;;;;;;32.28;16.50;;;7.30;99.90;;;;;;5078967;28;20031;-72
2022/11/30 00:37:18;;;;;;;33.08;17.20;;;7.40;99.90;;;;;;5081460;28;20398;-72
2022/11/30 00:39:43;;;;;;;36.25;18.10;;;7.30;99.90;;;;;;5079491;28;20844;-72
2022/11/30 00:42:09;;;;;;;35.63;17.20;;;7.40;99.90;;;;;;5079121;28;20183;-72
2022/11/30 00:44:35;;;;;;;31.48;15.73;;;7.40;99.90;;;;;;5078361;28;20071;-72
2022/11/30 00:47:00;;;;;;;38.10;17.85;;;7.30;99.90;;;;;;5083170;28;20032;-72
2022/11/30 00:49:26;;;;;;;34.67;17.08;;;7.40;99.90;;;;;;5081169;28;20085;-72
2022/11/30 00:51:52;;;;;;;35.00;16.13;;;7.40;99.90;;;;;;5082421;28;20035;-72
2022/11/30 00:54:17;;;;;;;36.60;16.98;;;7.40;99.90;;;;;;5075814;28;20761;-72
2022/11/30 00:56:43;;;;;;;37.13;17.35;;;7.40;99.90;;;;;;5083608;28;20020;-72
2022/11/30 00:59:09;;;;;;;35.80;17.38;;;7.30;99.90;;;;;;5080897;28;20033;-72
2022/11/30 01:01:35;;;;;;;36.65;17.40;;;7.40;99.90;;;;;;5077232;28;20378;-72
2022/11/30 01:04:01;;;;;;;36.30;17.05;;;7.40;99.90;;;;;;5078850;28;20028;-73
2022/11/30 01:06:27;;;;;;;30.17;15.98;;;7.40;99.90;;;;;;5071118;28;20032;-73
2022/11/30 01:08:53;;;;;;;34.33;18.15;;;7.40;99.90;;;;;;5076480;28;20031;-72
2022/11/30 01:11:27;;;;;;;34.13;17.58;;;7.40;99.90;;;;;;5081631;28;20032;-72
2022/11/30 01:13:54;;;;;;;32.40;17.13;;;7.40;99.90;;;;;;5077864;28;20036;-73
2022/11/30 01:16:30;;;;;;;30.60;15.65;;;7.40;99.90;;;;;;5080949;28;20089;-72
2022/11/30 01:18:56;;;;;;;36.95;16.58;;;7.40;99.90;;;;;;5075885;28;20078;-72
2022/11/30 01:21:24;;;;;;;30.50;16.02;;;7.40;99.90;;;;;;5080835;28;20028;-72
2022/11/30 01:23:50;;;;;;;30.85;16.10;;;7.30;99.90;;;;;;5082231;28;20038;-73
2022/11/30 01:26:17;;;;;;;33.40;17.15;;;7.30;99.90;;;;;;5085013;28;20031;-72
2022/11/30 01:28:43;;;;;;;30.50;16.17;;;7.30;99.90;;;;;;5081792;28;20020;-73
2022/11/30 01:31:12;;;;;;;28.05;16.42;;;7.30;99.90;;;;;;5079605;28;20040;-72
2022/11/30 01:33:39;;;;;;;33.90;16.40;;;7.30;99.90;;;;;;5074038;28;20127;-73
2022/11/30 01:36:14;;;;;;;24.13;15.02;;;7.30;99.90;;;;;;5077857;28;20042;-72
2022/11/30 01:38:43;;;;;;;23.60;15.60;;;7.30;99.90;;;;;;5071804;28;20142;-73
2022/11/30 01:41:11;;;;;;;24.33;14.95;;;7.30;99.90;;;;;;5075654;28;20032;-72
2022/11/30 01:43:45;;;;;;;23.20;15.00;;;7.30;99.90;;;;;;5079096;28;20101;-72
2022/11/30 01:46:29;;;;;;;26.30;14.85;;;7.30;99.90;;;;;;5072213;28;20191;-71
2022/11/30 01:49:09;;;;;;;;;;;7.30;99.90;;;;;;5076379;28;20058;-72
2022/11/30 01:51:50;;;;;;;18.17;12.90;;;7.30;99.90;;;;;;5080155;28;19996;-71
2022/11/30 01:54:26;;;;;;;21.10;13.18;;;7.30;99.90;;;;;;5078476;28;20268;-72
2022/11/30 01:56:55;;;;;;;19.60;12.55;;;7.30;99.90;;;;;;5072752;28;20029;-71
2022/11/30 01:59:23;;;;;;;22.48;13.90;;;7.30;99.90;;;;;;5080801;28;20025;-72
2022/11/30 02:01:51;;;;;;;28.33;16.23;;;7.30;99.90;;;;;;5083217;28;20024;-72
2022/11/30 02:04:28;;;;;;;29.00;15.73;;;7.30;99.90;;;;;;5078877;28;20457;-72
2022/11/30 02:06:58;;;;;;;32.10;16.33;;;7.30;99.90;;;;;;5077207;28;20024;-72
2022/11/30 02:09:26;;;;;;;32.22;16.88;;;7.30;99.90;;;;;;5080743;28;20032;-72
2022/11/30 02:11:52;;;;;;;38.60;17.35;;;7.30;99.90;;;;;;5081195;28;20056;-71
2022/11/30 02:14:38;;;;;;;32.78;15.98;;;7.40;99.90;;;;;;5078046;28;20039;-72
2022/11/30 02:17:10;;;;;;;33.78;15.82;;;7.40;99.90;;;;;;5081021;28;20070;-72
2022/11/30 02:20:19;;;;;;;30.67;15.43;;;7.40;99.90;;;;;;5085312;28;20163;-72
2022/11/30 02:22:58;;;;;;;36.45;15.50;;;7.40;99.90;;;;;;5081168;28;20009;-72
2022/11/30 02:26:09;;;;;;;31.05;15.18;;;7.40;99.90;;;;;;5079421;28;20028;-72
2022/11/30 02:29:02;;;;;;;32.15;14.80;;;7.40;99.90;;;;;;5077418;28;20035;-72
2022/11/30 02:31:40;;;;;;;36.10;15.55;;;7.40;99.90;;;;;;5080903;28;20024;-72
2022/11/30 02:34:09;;;;;;;35.10;15.35;;;7.40;99.90;;;;;;5086070;28;20078;-72
2022/11/30 02:36:36;;;;;;;32.15;15.10;;;7.40;99.90;;;;;;5084297;28;20031;-73
2022/11/30 02:39:02;;;;;;;28.80;14.10;;;7.40;99.90;;;;;;5084658;28;20077;-73
2022/11/30 02:41:38;;;;;;;33.15;15.55;;;7.40;99.90;;;;;;5084616;28;20039;-72
2022/11/30 02:44:04;;;;;;;38.03;16.52;;;7.40;99.90;;;;;;5083335;28;20122;-72
2022/11/30 02:46:35;;;;;;;31.50;14.98;;;7.40;99.90;;;;;;5080130;28;20031;-72
2022/11/30 02:49:09;;;;;;;33.28;15.60;;;7.40;99.90;;;;;;5083557;28;20086;-72
2022/11/30 02:51:37;;;;;;;33.38;15.65;;;7.40;99.90;;;;;;5080712;28;20043;-72
2022/11/30 02:54:03;;;;;;;34.33;15.57;;;7.40;99.90;;;;;;5081952;28;20031;-72
2022/11/30 02:56:29;;;;;;;30.83;14.85;;;7.40;99.90;;;;;;5083823;28;20055;-72
2022/11/30 02:58:55;;;;;;;30.58;15.20;;;7.40;99.90;;;;;;5084592;28;20031;-73
2022/11/30 03:01:21;;;;;;;29.08;13.43;;;7.40;99.90;;;;;;5085699;28;20027;-72
2022/11/30 03:03:46;;;;;;;28.52;13.60;;;7.40;99.90;;;;;;5081953;28;20016;-72
2022/11/30 03:06:12;;;;;;;26.90;12.98;;;7.30;99.90;;;;;;5080131;28;20062;-72
2022/11/30 03:08:38;;;;;;;27.73;12.95;;;7.30;99.90;;;;;;5081426;28;20036;-72
2022/11/30 03:11:04;;;;;;;25.42;11.80;;;7.40;99.90;;;;;;5084120;28;20023;-72
2022/11/30 03:13:31;;;;;;;27.27;12.93;;;7.30;99.90;;;;;;5084545;28;20031;-72
2022/11/30 03:15:57;;;;;;;24.40;11.90;;;7.40;99.90;;;;;;5078572;28;20032;-73
2022/11/30 03:18:22;;;;;;;24.80;12.25;;;7.40;99.90;;;;;;5082960;28;20020;-72
2022/11/30 03:20:48;;;;;;;22.10;11.75;;;7.40;99.90;;;;;;5075305;28;20024;-73
2022/11/30 03:23:13;;;;;;;24.70;12.40;;;7.40;99.90;;;;;;5078961;28;20032;-73
2022/11/30 03:25:39;;;;;;;24.02;11.88;;;7.40;99.90;;;;;;5079259;28;20059;-73
2022/11/30 03:28:05;;;;;;;23.00;12.18;;;7.40;99.90;;;;;;5074194;28;20634;-73
2022/11/30 03:30:30;;;;;;;24.33;12.25;;;7.40;99.90;;;;;;5083598;28;20020;-73
2022/11/30 03:32:56;;;;;;;23.75;11.98;;;7.40;99.90;;;;;;5079894;28;20590;-73
2022/11/30 03:35:22;;;;;;;23.88;11.45;;;7.40;99.90;;;;;;5076317;28;20035;-73
2022/11/30 03:37:47;;;;;;;25.33;13.43;;;7.40;99.90;;;;;;5083558;28;20023;-73
2022/11/30 03:40:13;;;;;;;24.48;13.60;;;7.40;99.90;;;;;;5082292;28;20596;-73
2022/11/30 03:42:38;;;;;;;22.42;13.07;;;7.40;99.90;;;;;;5079254;28;20047;-73
2022/11/30 03:45:05;;;;;;;24.85;13.10;;;7.40;99.90;;;;;;5080544;28;20203;-73
2022/11/30 03:47:30;;;;;;;26.13;13.55;;;7.40;99.90;;;;;;5081054;28;20029;-73
2022/11/30 03:49:56;;;;;;;21.98;12.80;;;7.30;99.90;;;;;;5086204;28;20035;-73
2022/11/30 03:52:22;;;;;;;22.10;12.27;;;7.30;99.90;;;;;;5081234;28;20525;-73
2022/11/30 03:54:47;;;;;;;25.92;13.75;;;7.30;99.90;;;;;;5083077;28;20038;-73
2022/11/30 03:57:13;;;;;;;24.50;12.45;;;7.30;99.90;;;;;;5082230;28;20027;-73
2022/11/30 03:59:38;;;;;;;21.60;12.10;;;7.30;99.90;;;;;;5083274;28;20111;-74
2022/11/30 04:02:04;;;;;;;21.73;12.52;;;7.30;99.90;;;;;;5082696;28;20023;-73
2022/11/30 04:04:29;;;;;;;19.48;11.55;;;7.30;99.90;;;;;;5081166;28;20032;-74
2022/11/30 04:06:55;;;;;;;22.05;12.82;;;7.30;99.90;;;;;;5076631;28;20748;-73
2022/11/30 04:09:21;;;;;;;23.05;12.77;;;7.40;99.90;;;;;;5081986;28;20127;-73
2022/11/30 04:11:46;;;;;;;30.00;14.90;;;7.40;99.90;;;;;;5085379;28;20031;-73
2022/11/30 04:14:12;;;;;;;24.35;13.85;;;7.30;99.90;;;;;;5078788;28;20064;-73
2022/11/30 04:16:37;;;;;;;22.70;13.25;;;7.30;99.90;;;;;;5079905;28;20020;-73
2022/11/30 04:19:03;;;;;;;19.95;12.60;;;7.30;99.90;;;;;;5081420;28;20054;-73
2022/11/30 04:21:29;;;;;;;22.83;12.45;;;7.30;99.90;;;;;;5081370;28;20032;-73
2022/11/30 04:23:55;;;;;;;25.63;12.55;;;7.30;99.90;;;;;;5075838;28;20028;-73
2022/11/30 04:26:20;;;;;;;29.58;14.00;;;7.30;99.90;;;;;;5079899;28;20051;-73
2022/11/30 04:28:46;;;;;;;22.40;14.27;;;7.30;99.90;;;;;;5079430;28;20115;-73
2022/11/30 04:31:12;;;;;;;24.65;14.80;;;7.20;99.90;;;;;;5077262;28;20032;-73
2022/11/30 04:33:38;;;;;;;38.53;13.85;;;7.30;99.90;;;;;;5077864;28;20081;-73
2022/11/30 04:36:05;;;;;;;23.95;13.63;;;7.20;99.90;;;;;;5077103;28;20032;-73
2022/11/30 04:38:32;;;;;;;19.92;13.05;;;7.20;99.90;;;;;;5084046;28;20028;-73
2022/11/30 04:40:57;;;;;;;17.45;10.93;;;7.20;99.90;;;;;;5084114;28;20115;-72
2022/11/30 04:43:24;;;;;;;21.08;13.27;;;7.20;99.90;;;;;;5078272;28;20175;-73
2022/11/30 04:45:50;;;;;;;21.33;13.05;;;7.30;99.90;;;;;;5082012;28;20035;-73
2022/11/30 04:48:17;;;;;;;31.80;18.45;;;7.30;99.90;;;;;;5084579;28;20024;-73
2022/11/30 04:50:43;;;;;;;32.10;19.33;;;7.30;99.90;;;;;;5082529;28;20061;-73
2022/11/30 04:53:09;;;;;;;33.22;20.17;;;7.30;99.90;;;;;;5077906;28;20120;-73
2022/11/30 04:55:36;;;;;;;28.98;18.13;;;7.30;99.90;;;;;;5079160;28;20028;-73
2022/11/30 04:58:03;;;;;;;25.95;15.63;;;7.30;99.90;;;;;;5077051;28;20051;-73
2022/11/30 05:00:28;;;;;;;26.90;15.13;;;7.30;99.90;;;;;;5075169;28;20031;-73
2022/11/30 05:02:55;;;;;;;26.63;14.63;;;7.30;99.90;;;;;;5078336;28;20031;-73
2022/11/30 05:05:21;;;;;;;27.60;15.00;;;7.30;99.90;;;;;;5080229;28;20012;-73
2022/11/30 05:07:55;;;;;;;23.65;12.65;;;7.30;99.90;;;;;;5081807;28;20385;-72
2022/11/30 05:10:21;;;;;;;23.77;12.80;;;7.30;99.90;;;;;;5079597;28;20367;-73
2022/11/30 05:12:47;;;;;;;24.15;12.15;;;7.30;99.90;;;;;;5072132;28;20058;-73
2022/11/30 05:15:12;;;;;;;22.80;12.20;;;7.30;99.90;;;;;;5072996;28;20036;-73
2022/11/30 05:17:38;;;;;;;23.35;12.77;;;7.30;99.90;;;;;;5074864;28;20020;-73
2022/11/30 05:20:04;;;;;;;22.17;12.32;;;7.40;99.90;;;;;;5078600;28;20386;-73
2022/11/30 05:22:30;;;;;;;22.67;11.68;;;7.30;99.90;;;;;;5077904;28;20032;-73
2022/11/30 05:24:55;;;;;;;21.70;11.40;;;7.40;99.90;;;;;;5077470;28;20023;-74
2022/11/30 05:27:21;;;;;;;22.17;12.05;;;7.30;99.90;;;;;;5080798;28;20024;-73
2022/11/30 05:29:46;;;;;;;22.95;12.48;;;7.40;99.90;;;;;;5092631;28;20037;-73
2022/11/30 05:32:12;;;;;;;21.60;11.68;;;7.40;99.90;;;;;;5090284;28;21187;-73
2022/11/30 05:34:38;;;;;;;19.73;11.25;;;7.30;99.90;;;;;;5079251;28;20035;-73
2022/11/30 05:37:03;;;;;;;19.25;11.27;;;7.30;99.90;;;;;;5093102;28;20029;-73
2022/11/30 05:39:29;;;;;;;17.95;11.30;;;7.30;99.90;;;;;;5090637;28;20028;-73
2022/11/30 05:41:55;;;;;;;19.83;11.82;;;7.30;99.90;;;;;;5076221;28;20073;-73
2022/11/30 05:44:20;;;;;;;19.17;11.05;;;7.30;99.90;;;;;;5061110;28;20472;-73
2022/11/30 05:46:46;;;;;;;18.75;10.90;;;7.30;99.90;;;;;;5064108;28;20547;-73
2022/11/30 05:49:11;;;;;;;18.88;10.95;;;7.30;99.90;;;;;;5063384;28;20032;-73
2022/11/30 05:51:39;;;;;;;18.15;11.02;;;7.30;99.90;;;;;;5073813;28;20035;-74
2022/11/30 05:54:05;;;;;;;19.80;11.15;;;7.40;99.90;;;;;;5080835;28;20042;-74
2022/11/30 05:56:30;;;;;;;21.92;12.02;;;7.40;99.90;;;;;;5074315;28;20028;-74
2022/11/30 05:58:56;;;;;;;22.05;11.93;;;7.40;99.90;;;;;;5081568;28;20024;-74
2022/11/30 06:01:27;;;;;;;21.08;11.50;;;7.40;99.90;;;;;;5075597;28;20047;-74
2022/11/30 06:03:53;;;;;;;21.35;11.75;;;7.40;99.90;;;;;;5082541;28;20032;-73
2022/11/30 06:06:19;;;;;;;23.75;12.65;;;7.40;99.90;;;;;;5088188;28;20093;-73
2022/11/30 06:08:46;;;;;;;25.10;12.85;;;7.40;99.90;;;;;;5078168;28;20569;-74
2022/11/30 06:11:12;;;;;;;27.33;12.23;;;7.40;99.90;;;;;;5083561;28;20035;-73
2022/11/30 06:13:38;;;;;;;23.33;12.30;;;7.30;99.90;;;;;;5085803;28;20085;-74
2022/11/30 06:16:05;;;;;;;22.52;12.05;;;7.30;99.90;;;;;;5082817;28;20060;-74
2022/11/30 06:18:31;;;;;;;21.08;11.23;;;7.30;99.90;;;;;;5081543;28;20159;-73
2022/11/30 06:21:10;;;;;;;22.85;12.13;;;7.40;99.90;;;;;;5084614;28;20024;-74
2022/11/30 06:23:36;;;;;;;25.75;12.68;;;7.30;99.90;;;;;;5083953;28;20024;-74
2022/11/30 06:26:07;;;;;;;19.58;10.90;;;7.30;99.90;;;;;;5086793;28;20032;-74
2022/11/30 06:28:33;;;;;;;20.73;12.35;;;7.30;99.90;;;;;;5083276;28;20024;-74
2022/11/30 06:31:01;;;;;;;22.27;12.70;;;7.40;99.90;;;;;;5086359;28;20027;-74
2022/11/30 06:33:26;;;;;;;26.98;13.98;;;7.40;99.90;;;;;;5084522;28;20101;-74
2022/11/30 06:35:52;;;;;;;27.52;13.88;;;7.30;99.90;;;;;;5086388;28;20111;-74
2022/11/30 06:38:18;;;;;;;24.48;13.73;;;7.30;99.90;;;;;;5085119;28;20085;-74
2022/11/30 06:40:44;;;;;;;23.90;13.95;;;7.30;99.90;;;;;;5086397;28;20371;-74
2022/11/30 06:43:09;;;;;;;22.75;13.55;;;7.30;99.90;;;;;;5070457;28;20055;-73
2022/11/30 06:45:35;;;;;;;24.73;14.55;;;7.30;99.90;;;;;;5081709;28;20053;-73
2022/11/30 06:48:01;;;;;;;22.20;13.77;;;7.30;99.90;;;;;;5083584;28;20028;-73
2022/11/30 06:50:26;;;;;;;21.23;12.82;;;7.30;99.90;;;;;;5080914;28;20196;-73
2022/11/30 06:52:52;;;;;;;18.83;12.35;;;7.30;99.90;;;;;;5084894;28;20078;-73
2022/11/30 06:55:18;;;;;;;19.10;12.63;;;7.30;99.90;;;;;;5083927;28;20100;-73
2022/11/30 06:57:44;;;;;;;20.45;13.05;;;7.30;99.90;;;;;;5080892;28;20028;-73
2022/11/30 07:00:11;;;;;;;20.67;12.75;;;7.30;99.90;;;;;;5084110;28;20039;-73
2022/11/30 07:02:37;;;;;;;18.70;12.10;;;7.30;99.90;;;;;;5077361;28;20099;-73
2022/11/30 07:05:03;;;;;;;22.23;12.70;;;7.30;99.90;;;;;;5081493;28;20123;-73
2022/11/30 07:07:29;;;;;;;24.83;13.70;;;7.30;99.90;;;;;;5081180;28;20012;-73
2022/11/30 07:09:55;;;;;;;29.30;16.27;;;7.30;99.90;;;;;;5087436;28;20028;-73
2022/11/30 07:12:20;;;;;;;30.17;17.25;;;7.30;99.90;;;;;;5082010;28;20364;-73
2022/11/30 07:14:46;;;;;;;26.13;16.35;;;7.40;99.90;;;;;;5083956;28;20609;-73
2022/11/30 07:17:11;;;;;;;26.23;15.77;;;7.40;99.90;;;;;;5080441;28;20024;-73
2022/11/30 07:19:37;;;;;;;31.98;17.67;;;7.40;99.90;;;;;;5080767;28;20024;-73
2022/11/30 07:22:03;;;;;;;32.95;18.08;;;7.50;99.90;;;;;;5080638;28;20027;-73
2022/11/30 07:27:13;;;;;;;26.38;15.57;;;7.40;99.90;;;;;;5082830;28;20713;-73
2022/11/30 07:29:39;;;;;;;21.52;12.82;;;7.50;99.90;;;;;;5084398;28;20025;-73
2022/11/30 07:32:04;;;;;;;16.23;10.65;;;7.50;99.90;;;;;;5084697;28;20031;-73
2022/11/30 07:34:30;;;;;;;18.38;10.82;;;7.50;99.90;;;;;;5069708;28;20198;-73
2022/11/30 07:36:55;;;;;;;19.60;10.73;;;7.50;99.90;;;;;;5083820;28;20028;-73
2022/11/30 07:39:22;;;;;;;20.10;10.98;;;7.50;99.90;;;;;;5076270;28;20028;-73
2022/11/30 07:41:48;;;;;;;16.25;10.18;;;7.50;99.90;;;;;;5070485;28;20421;-73
2022/11/30 07:44:13;;;;;;;19.33;9.60;;;7.50;99.90;;;;;;5077122;28;20048;-73
2022/11/30 07:46:39;;;;;;;14.32;8.98;;;7.50;99.90;;;;;;5085339;28;20479;-73
2022/11/30 07:49:06;;;;;;;13.98;8.95;;;7.60;99.90;;;;;;5078432;28;20119;-73
2022/11/30 07:51:32;;;;;;;13.38;8.27;;;7.60;99.90;;;;;;5073911;28;20442;-73
2022/11/30 07:53:58;;;;;;;14.80;9.18;;;7.60;99.90;;;;;;5074173;28;20097;-73
2022/11/30 07:56:25;;;;;;;16.35;10.52;;;7.50;99.90;;;;;;5084667;28;20116;-74
2022/11/30 07:58:57;;;;;;;19.95;11.02;;;7.60;99.90;;;;;;5087889;28;20398;-73
2022/11/30 08:01:26;;;;;;;16.60;9.82;;;7.60;99.90;;;;;;5075490;28;20032;-73
2022/11/30 08:03:52;;;;;;;14.88;10.20;;;7.60;99.90;;;;;;5077351;28;20043;-73
2022/11/30 08:06:20;;;;;;;14.45;9.02;;;7.60;99.90;;;;;;5085344;28;20020;-73
2022/11/30 08:08:48;;;;;;;14.88;9.98;;;7.70;99.90;;;;;;5084087;28;20475;-73
2022/11/30 08:11:17;;;;;;;19.63;10.70;;;7.80;99.90;;;;;;5085528;28;20024;-73
2022/11/30 08:13:43;;;;;;;20.35;11.52;;;7.80;99.90;;;;;;5084506;28;20020;-73
2022/11/30 08:16:14;;;;;;;20.80;11.57;;;7.80;99.90;;;;;;5075388;28;20043;-73
2022/11/30 08:18:41;;;;;;;22.38;11.93;;;7.90;99.90;;;;;;5067656;28;20012;-73
2022/11/30 08:21:09;;;;;;;20.30;11.90;;;7.90;99.90;;;;;;5079150;28;20031;-74
2022/11/30 08:23:40;;;;;;;20.13;11.88;;;7.90;99.90;;;;;;5085645;28;20166;-73
2022/11/30 08:26:07;;;;;;;24.30;12.68;;;7.90;99.90;;;;;;5069512;28;20036;-73
2022/11/30 08:28:36;;;;;;;21.45;12.65;;;8.00;99.90;;;;;;5085901;28;20024;-74
2022/11/30 08:31:05;;;;;;;23.65;13.27;;;8.00;99.90;;;;;;5096473;28;20473;-73
2022/11/30 08:33:31;;;;;;;25.05;13.57;;;8.00;99.90;;;;;;5082990;28;20032;-74
2022/11/30 08:36:15;;;;;;;25.92;14.02;;;8.00;99.90;;;;;;5086498;28;20149;-73
2022/11/30 08:38:42;;;;;;;27.85;14.80;;;8.10;99.90;;;;;;5082159;28;20245;-74
2022/11/30 08:41:10;;;;;;;28.02;13.85;;;8.10;99.90;;;;;;5087159;28;20051;-74
2022/11/30 08:43:36;;;;;;;27.98;14.95;;;8.10;99.90;;;;;;5067506;28;20093;-74
2022/11/30 08:46:03;;;;;;;28.20;14.98;;;8.10;99.90;;;;;;5085408;28;20447;-74
2022/11/30 08:48:29;;;;;;;29.42;15.20;;;8.20;99.90;;;;;;5085231;28;20561;-73
2022/11/30 08:50:59;;;;;;;29.67;15.63;;;8.20;99.90;;;;;;5085296;28;20024;-74
2022/11/30 08:53:25;;;;;;;34.75;17.02;;;8.20;99.90;;;;;;5082007;28;20032;-74
2022/11/30 08:56:00;;;;;;;34.58;17.00;;;8.20;99.90;;;;;;5069429;28;20016;-74
2022/11/30 08:58:28;;;;;;;37.67;18.35;;;8.20;99.90;;;;;;5080152;28;20032;-74
2022/11/30 09:00:54;;;;;;;34.80;17.95;;;8.20;99.90;;;;;;5085354;28;20439;-74
2022/11/30 09:03:20;;;;;;;33.70;18.27;;;8.20;99.90;;;;;;5084806;28;20107;-74
2022/11/30 09:05:46;;;;;;;39.00;19.17;;;8.20;99.90;;;;;;5071639;28;20489;-74
2022/11/30 09:08:11;;;;;;;36.95;17.92;;;8.20;99.90;;;;;;5074825;28;20032;-74
2022/11/30 09:10:37;;;;;;;38.40;18.38;;;8.20;99.90;;;;;;5080895;28;20056;-74
2022/11/30 09:13:03;;;;;;;35.50;18.65;;;8.20;99.90;;;;;;5084640;28;20028;-73
2022/11/30 09:15:28;;;;;;;32.42;17.52;;;8.20;99.90;;;;;;5083874;28;20354;-73
2022/11/30 09:17:54;;;;;;;32.95;17.60;;;8.20;99.90;;;;;;5086516;28;20598;-73
2022/11/30 09:20:19;;;;;;;35.50;17.77;;;8.30;99.90;;;;;;5085144;28;20072;-73
2022/11/30 09:22:45;;;;;;;32.90;16.73;;;8.30;99.90;;;;;;5071629;28;20633;-73
2022/11/30 09:25:11;;;;;;;35.85;17.95;;;8.30;99.90;;;;;;5086254;28;20032;-73
2022/11/30 09:27:36;;;;;;;33.45;17.70;;;8.30;99.90;;;;;;5084787;28;20425;-73
2022/11/30 09:30:02;;;;;;;32.92;17.45;;;8.30;99.90;;;;;;5075474;28;20031;-73
2022/11/30 09:32:29;;;;;;;33.53;17.38;;;;;;;;;;5084046;28;20036;-73
2022/11/30 09:34:55;;;;;;;35.58;17.52;;;;;;;;;;5084447;28;20033;-73
2022/11/30 09:37:22;;;;;;;32.65;17.30;;;;;;;;;;5076365;28;20031;-73
2022/11/30 09:39:48;;;;;;;36.75;18.00;;;;;;;;;;5079388;28;20030;-73
2022/11/30 09:42:40;;;;;;;33.70;18.20;;;;;;;;;;5082433;28;20016;-73
2022/11/30 09:45:06;;;;;;;37.58;18.73;;;;;;;;;;5070616;28;20063;-73
2022/11/30 09:47:52;;;;;;;34.92;17.90;;;;;;;;;;5065509;28;20052;-73
2022/11/30 09:50:20;;;;;;;35.60;17.95;;;;;;;;;;5075682;28;20130;-73
2022/11/30 09:52:48;;;;;;;35.92;18.75;;;;;;;;;;5075760;28;20073;-73
2022/11/30 09:55:20;;;;;;;36.13;18.60;;;;;;;;;;5083966;28;20066;-73
2022/11/30 09:57:53;;;;;;;37.42;18.58;;;8.60;99.90;;;;;;5082711;28;20028;-73
2022/11/30 10:00:23;;;;;;;;;;;8.40;99.90;;;;;;5085260;28;20024;-73
2022/11/30 10:02:50;;;;;;;34.90;17.67;;;8.40;99.90;;;;;;5071495;28;19909;-73
2022/11/30 10:05:18;;;;;;;34.45;18.02;;;8.40;99.90;;;;;;5075649;28;20024;-73
2022/11/30 10:08:11;;;;;;;37.70;18.80;;;8.30;99.90;;;;;;5086714;28;20085;-73
2022/11/30 10:10:36;;;;;;;38.08;19.00;;;8.40;99.90;;;;;;5077947;28;20116;-73
2022/11/30 10:13:22;;;;;;;36.72;18.70;;;8.40;99.90;;;;;;5084106;28;20115;-73
2022/11/30 10:16:25;;;;;;;38.15;17.92;;;8.40;99.90;;;;;;5081215;28;20073;-73
2022/11/30 10:19:10;;;;;;;33.35;17.00;;;8.40;99.90;;;;;;5066190;28;20032;-73
2022/11/30 10:22:13;;;;;;;30.92;15.68;;;8.30;99.90;;;;;;5085007;28;20073;-73
2022/11/30 10:25:16;;;;;;;32.43;15.27;;;8.30;99.90;;;;;;5074010;28;20143;-73
2022/11/30 10:27:47;;;;;;;30.38;15.70;;;8.30;99.90;;;;;;5083792;28;20034;-72
2022/11/30 10:30:22;;;;;;;33.97;15.68;;;8.30;99.90;;;;;;5070071;28;20479;-72
2022/11/30 10:32:55;;;;;;;32.03;16.67;;;8.30;99.90;;;;;;5064590;28;20051;-73
2022/11/30 10:35:40;;;;;;;29.23;15.57;;;8.30;99.90;;;;;;5083114;28;20040;-72
2022/11/30 10:38:13;;;;;;;34.67;16.00;;;8.30;99.90;;;;;;5088108;28;20520;-72
2022/11/30 10:40:44;;;;;;;;;;;8.30;99.90;;;;;;5089884;28;20036;-73
2022/11/30 10:43:26;;;;;;;34.75;15.40;;;8.30;99.90;;;;;;5088990;28;19923;-73
2022/11/30 10:45:52;;;;;;;31.40;14.52;;;8.40;99.90;;;;;;5069741;28;20087;-73
2022/11/30 10:48:46;;;;;;;26.50;13.65;;;8.40;99.90;;;;;;5086152;28;20032;-73
2022/11/30 10:51:12;;;;;;;26.40;13.05;;;8.40;99.90;;;;;;5081499;28;20074;-74
2022/11/30 10:53:37;;;;;;;24.80;12.57;;;8.40;99.90;;;;;;5066904;28;20058;-73
2022/11/30 10:56:12;;;;;;;25.40;12.88;;;8.40;99.90;;;;;;5087685;28;20051;-73
2022/11/30 10:58:50;;;;;;;25.08;12.48;;;8.40;99.90;;;;;;5068884;28;20017;-73
2022/11/30 11:01:39;;;;;;;22.63;12.32;;;8.40;99.90;;;;;;5084884;28;20020;-73
2022/11/30 11:04:24;;;;;;;22.65;11.05;;;8.40;99.90;;;;;;5066963;28;20035;-73
2022/11/30 11:07:05;;;;;;;20.08;10.27;;;8.40;99.90;;;;;;5084373;28;20025;-73
2022/11/30 11:09:38;;;;;;;18.42;9.55;;;8.40;99.90;;;;;;5088943;28;20394;-73
2022/11/30 11:12:04;;;;;;;16.80;8.90;;;8.40;99.90;;;;;;5087200;28;20031;-72
2022/11/30 11:14:30;;;;;;;17.33;9.40;;;8.30;99.90;;;;;;5074985;28;20024;-73
2022/11/30 11:16:59;;;;;;;13.95;7.82;;;8.30;99.90;;;;;;5077369;28;20031;-73
2022/11/30 11:19:37;;;;;;;23.05;11.52;;;8.30;99.90;;;;;;5088847;28;20402;-73
2022/11/30 11:22:06;;;;;;;22.25;11.68;;;8.30;99.90;;;;;;5087439;28;20552;-72
2022/11/30 11:24:32;;;;;;;22.92;11.35;;;8.30;99.90;;;;;;5082562;28;20037;-73
2022/11/30 11:26:59;;;;;;;20.83;11.50;;;8.30;99.90;;;;;;5080330;28;20111;-73
2022/11/30 11:29:33;;;;;;;21.08;10.98;;;8.30;99.90;;;;;;5069552;28;20537;-73
2022/11/30 11:32:29;;;;;;;19.30;9.98;;;8.30;99.90;;;;;;5077797;28;20142;-73
2022/11/30 11:34:56;;;;;;;13.75;8.32;;;8.30;99.90;;;;;;5063476;28;20040;-73
2022/11/30 11:37:22;;;;;;;13.25;7.57;;;8.30;99.90;;;;;;5081295;28;20032;-72
2022/11/30 11:40:01;;;;;;;14.35;7.88;;;8.30;99.90;;;;;;5081541;28;20035;-73
2022/11/30 11:42:30;;;;;;;12.07;7.28;;;;;;;;;;5081016;28;20465;-72
2022/11/30 11:44:58;;;;;;;11.77;7.30;;;8.30;99.90;;;;;;4724006;28;10000469;-72
2022/11/30 11:47:44;;;;;;;13.15;7.28;;;8.20;99.90;;;;;;5080571;28;20028;-72
2022/11/30 11:50:27;;;;;;;11.50;6.63;;;8.20;99.90;;;;;;5084809;28;20428;-71
2022/11/30 11:53:44;;;;;;;9.75;6.05;;;8.20;99.90;;;;;;5075594;28;20023;-71
2022/11/30 11:56:19;;;;;;;12.10;6.57;;;8.20;99.90;;;;;;5051615;28;20041;-71
2022/11/30 11:58:57;;;;;;;11.85;6.82;;;8.30;99.90;;;;;;5076443;28;20044;-71
2022/11/30 12:02:02;;;;;;;10.10;5.68;;;8.30;99.90;;;;;;5068615;28;20024;-71
2022/11/30 12:04:55;;;;;;;9.75;6.22;;;8.30;99.90;;;;;;5074681;28;20059;-71
2022/11/30 12:07:42;;;;;;;10.05;5.68;;;8.30;99.90;;;;;;5073654;28;20032;-71
2022/11/30 12:10:30;;;;;;;9.25;5.47;;;8.40;99.90;;;;;;5075274;28;20058;-71
2022/11/30 12:12:57;;;;;;;10.70;5.95;;;8.40;99.90;;;;;;5070503;28;20093;-71
2022/11/30 12:15:35;;;;;;;10.38;6.28;;;8.40;99.90;;;;;;5079629;28;20092;-71
2022/11/30 12:18:27;;;;;;;8.75;5.97;;;8.40;99.90;;;;;;5069779;28;20056;-71
2022/11/30 12:20:55;;;;;;;10.45;6.32;;;8.40;99.90;;;;;;5078932;28;20024;-71
2022/11/30 12:23:40;;;;;;;11.52;6.47;;;8.40;99.90;;;;;;5075979;28;20489;-71
2022/11/30 12:26:15;;;;;;;9.25;6.00;;;8.40;99.90;;;;;;5076055;28;20052;-72
2022/11/30 12:28:58;;;;;;;9.10;6.35;;;8.30;99.90;;;;;;5078207;28;20039;-72
2022/11/30 12:31:32;;;;;;;8.93;5.57;;;8.30;99.90;;;;;;5077320;28;20028;-72
2022/11/30 12:34:19;;;;;;;8.35;5.82;;;8.30;99.90;;;;;;5073173;28;20119;-71
2022/11/30 12:37:02;;;;;;;10.32;5.60;;;8.30;99.90;;;;;;5080524;28;20571;-71
2022/11/30 12:39:50;;;;;;;10.30;5.78;;;8.30;99.90;;;;;;5076388;28;20119;-71
2022/11/30 12:42:21;;;;;;;8.63;5.25;;;8.20;99.90;;;;;;5073848;28;20494;-71
2022/11/30 12:45:05;;;;;;;7.78;4.70;;;8.30;99.90;;;;;;5079614;28;20098;-71
2022/11/30 12:47:50;;;;;;;;;;;8.30;99.90;;;;;;5081947;28;20472;-71
2022/11/30 12:50:36;;;;;;;7.97;4.93;;;8.20;99.90;;;;;;5072510;28;20428;-71
2022/11/30 12:53:19;;;;;;;9.25;5.65;;;8.20;99.90;;;;;;5078696;28;20164;-71
2022/11/30 12:56:02;;;;;;;7.80;5.10;;;8.10;99.90;;;;;;5074526;28;20039;-71
2022/11/30 12:58:30;;;;;;;;;;;8.10;99.90;;;;;;5079190;28;20300;-71
2022/11/30 13:01:19;;;;;;;8.60;5.13;;;8.00;99.90;;;;;;5074400;28;19907;-71